Time;durP1;ratioP1;P1;durP2;ratioP2;P2;SDS_P1;SDS_P2;PMS_P1;PMS_P2;Temp;Humidity;BMP_temperature;BMP_pressure;BME280_temperature;BME280_humidity;BME280_pressure;Samples;Min_cycle;Max_cycle;Signal;HPM_P1;HPM_P2
2022/02/12 00:02:19;;;;;;;12.40;5.40;;;1.60;99.90;;;;;;5071751;28;20180;-85
2022/02/12 00:04:44;;;;;;;13.50;6.40;;;1.50;99.90;;;;;;5071640;28;20182;-84
2022/02/12 00:07:10;;;;;;;12.90;6.10;;;1.50;99.90;;;;;;5071355;28;20187;-84
2022/02/12 00:09:36;;;;;;;10.20;5.10;;;1.50;99.90;;;;;;5070977;28;20336;-84
2022/02/12 00:12:03;;;;;;;14.57;6.90;;;1.50;99.90;;;;;;5071217;28;20270;-84
2022/02/12 00:14:29;;;;;;;10.73;6.03;;;1.50;99.90;;;;;;5072738;28;20813;-84
2022/02/12 00:16:54;;;;;;;9.03;4.97;;;1.50;99.90;;;;;;5071194;28;20429;-83
2022/02/12 00:19:20;;;;;;;7.20;4.67;;;1.50;99.90;;;;;;5071486;28;20294;-85
2022/02/12 00:21:46;;;;;;;12.37;6.30;;;1.40;99.90;;;;;;5071357;28;20189;-84
2022/02/12 00:24:11;;;;;;;8.37;5.30;;;1.40;99.90;;;;;;5072686;28;20175;-84
2022/02/12 00:26:37;;;;;;;8.40;4.60;;;1.40;99.90;;;;;;5072499;28;20802;-84
2022/02/12 00:29:03;;;;;;;10.00;5.50;;;1.40;99.90;;;;;;5071376;28;20209;-85
2022/02/12 00:31:29;;;;;;;6.83;5.37;;;1.40;99.90;;;;;;5071334;28;20277;-84
2022/02/12 00:33:55;;;;;;;12.37;6.33;;;1.30;99.90;;;;;;5071404;28;20285;-85
2022/02/12 00:36:20;;;;;;;10.83;5.03;;;1.30;99.90;;;;;;5071086;28;20955;-83
2022/02/12 00:38:46;;;;;;;10.67;6.07;;;1.30;99.90;;;;;;5071186;28;20200;-84
2022/02/12 00:41:12;;;;;;;9.93;5.03;;;1.30;99.90;;;;;;5071120;28;20182;-84
2022/02/12 00:43:37;;;;;;;13.63;5.23;;;1.20;99.90;;;;;;5071238;28;20236;-84
2022/02/12 00:46:04;;;;;;;11.67;5.40;;;1.30;99.90;;;;;;5071108;28;20179;-84
2022/02/12 00:48:30;;;;;;;9.87;5.07;;;1.30;99.90;;;;;;5070819;28;20218;-84
2022/02/12 00:50:59;;;;;;;9.83;4.80;;;1.30;99.90;;;;;;5090608;22;20592;-77
2022/02/12 00:53:26;;;;;;;9.13;6.10;;;1.20;99.90;;;;;;5063430;28;20982;-77
2022/02/12 00:55:51;;;;;;;7.03;4.57;;;1.20;99.90;;;;;;5062174;28;20418;-77
2022/02/12 00:58:18;;;;;;;17.33;6.30;;;1.20;99.90;;;;;;5059487;28;20935;-77
2022/02/12 01:00:43;;;;;;;6.17;4.33;;;1.20;99.90;;;;;;5064511;28;20516;-77
2022/02/12 01:03:10;;;;;;;9.80;5.03;;;1.20;99.90;;;;;;5070125;28;20532;-77
2022/02/12 01:05:36;;;;;;;6.33;3.83;;;1.20;99.90;;;;;;5070573;28;20274;-77
2022/02/12 01:08:03;;;;;;;11.00;5.40;;;1.20;99.90;;;;;;5070429;28;20559;-77
2022/02/12 01:10:33;;;;;;;12.80;5.00;;;1.20;99.90;;;;;;5070318;28;20219;-77
2022/02/12 01:13:00;;;;;;;16.37;5.00;;;1.20;99.90;;;;;;5069973;28;21038;-77
2022/02/12 01:15:26;;;;;;;9.23;4.60;;;1.20;99.90;;;;;;5070690;28;20462;-77
2022/02/12 01:17:52;;;;;;;9.23;4.00;;;1.20;99.90;;;;;;5070108;28;20417;-76
2022/02/12 01:20:18;;;;;;;12.70;4.33;;;1.20;99.90;;;;;;5070169;28;20176;-77
2022/02/12 01:22:47;;;;;;;12.03;4.73;;;1.20;99.90;;;;;;5073191;28;20859;-76
2022/02/12 01:25:13;;;;;;;11.67;4.20;;;1.20;99.90;;;;;;5074088;28;20454;-77
2022/02/12 01:27:39;;;;;;;11.70;5.77;;;1.20;99.90;;;;;;5074032;28;20505;-77
2022/02/12 01:30:06;;;;;;;11.67;4.60;;;1.20;99.90;;;;;;5074005;28;20417;-77
2022/02/12 01:32:32;;;;;;;7.37;4.73;;;1.20;99.90;;;;;;5073751;28;20535;-77
2022/02/12 01:34:58;;;;;;;7.33;5.13;;;1.20;99.90;;;;;;5074061;28;20419;-77
2022/02/12 01:37:24;;;;;;;15.73;4.37;;;1.20;99.90;;;;;;5073808;28;20244;-77
2022/02/12 01:39:51;;;;;;;7.63;4.50;;;1.10;99.90;;;;;;5073749;28;20492;-76
2022/02/12 01:42:18;;;;;;;7.37;4.53;;;1.10;99.90;;;;;;5073858;28;20413;-77
2022/02/12 01:44:44;;;;;;;8.57;4.80;;;1.10;99.90;;;;;;5073652;28;20799;-77
2022/02/12 01:47:11;;;;;;;8.03;5.90;;;1.10;99.90;;;;;;5073936;28;20429;-77
2022/02/12 01:49:39;;;;;;;9.00;4.60;;;1.10;99.90;;;;;;5073673;28;20457;-77
2022/02/12 01:52:10;;;;;;;8.23;4.67;;;1.00;99.90;;;;;;5073448;28;20490;-77
2022/02/12 01:54:37;;;;;;;6.80;4.27;;;1.00;99.90;;;;;;5073456;28;20526;-76
2022/02/12 01:57:05;;;;;;;11.57;4.40;;;1.10;99.90;;;;;;5073252;28;20428;-76
2022/02/12 01:59:32;;;;;;;8.20;3.77;;;1.00;99.90;;;;;;5073395;28;20768;-77
2022/02/12 02:01:58;;;;;;;9.10;4.37;;;1.00;99.90;;;;;;5073348;28;20413;-77
2022/02/12 02:04:24;;;;;;;10.87;5.20;;;1.00;99.90;;;;;;5073345;28;20449;-77
2022/02/12 02:06:50;;;;;;;6.37;4.60;;;1.00;99.90;;;;;;5073138;28;20436;-77
2022/02/12 02:09:17;;;;;;;10.10;4.57;;;1.00;99.90;;;;;;5073367;28;20179;-77
2022/02/12 02:11:44;;;;;;;7.20;3.80;;;1.00;99.90;;;;;;5073048;28;20900;-77
2022/02/12 02:14:13;;;;;;;9.53;4.00;;;1.00;99.90;;;;;;5072927;28;20559;-76
2022/02/12 02:16:40;;;;;;;8.87;4.60;;;1.00;99.90;;;;;;5072988;28;20508;-77
2022/02/12 02:19:07;;;;;;;10.27;4.70;;;0.90;99.90;;;;;;5073161;28;20425;-77
2022/02/12 02:21:36;;;;;;;7.73;4.20;;;0.90;99.90;;;;;;5073017;28;20434;-76
2022/02/12 02:24:03;;;;;;;8.00;5.33;;;0.90;99.90;;;;;;5072953;28;20441;-77
2022/02/12 02:26:29;;;;;;;13.10;3.50;;;0.90;99.90;;;;;;5072505;28;20427;-77
2022/02/12 02:28:55;;;;;;;7.57;3.20;;;0.90;99.90;;;;;;5072932;28;20426;-77
2022/02/12 02:31:23;;;;;;;9.50;4.17;;;0.80;99.90;;;;;;5072912;28;20225;-77
2022/02/12 02:33:49;;;;;;;10.83;4.20;;;0.90;99.90;;;;;;5071674;28;20838;-76
2022/02/12 02:36:16;;;;;;;9.13;4.77;;;0.80;99.90;;;;;;5072792;28;20451;-76
2022/02/12 02:38:42;;;;;;;7.30;4.77;;;0.80;99.90;;;;;;5072627;28;20265;-77
2022/02/12 02:41:08;;;;;;;9.77;5.17;;;0.90;99.90;;;;;;5072574;28;20425;-77
2022/02/12 02:43:34;;;;;;;9.00;4.20;;;0.90;99.90;;;;;;5072525;28;20448;-76
2022/02/12 02:46:00;;;;;;;9.70;4.43;;;0.90;99.90;;;;;;5072630;28;20912;-77
2022/02/12 02:48:26;;;;;;;8.50;3.83;;;0.80;99.90;;;;;;5072389;28;20179;-77
2022/02/12 02:56:20;;;;;;;14.00;5.10;;;0.80;99.90;;;;;;5073955;28;20455;-76
2022/02/12 02:58:48;;;;;;;11.10;4.60;;;0.80;99.90;;;;;;5072277;28;20417;-77
2022/02/12 03:01:16;;;;;;;6.27;4.07;;;0.80;99.90;;;;;;5072372;28;20187;-76
2022/02/12 03:03:44;;;;;;;8.63;4.60;;;0.70;99.90;;;;;;5072147;28;20441;-76
2022/02/12 03:06:11;;;;;;;11.53;3.87;;;0.70;99.90;;;;;;5072091;28;20431;-76
2022/02/12 03:08:38;;;;;;;10.27;4.90;;;0.70;99.90;;;;;;5072100;28;20433;-76
2022/02/12 03:11:04;;;;;;;10.00;4.67;;;0.70;99.90;;;;;;5072096;28;20434;-76
2022/02/12 03:13:30;;;;;;;7.00;3.93;;;0.70;99.90;;;;;;5071948;28;20507;-76
2022/02/12 03:15:56;;;;;;;7.80;4.43;;;0.70;99.90;;;;;;5071934;28;20809;-76
2022/02/12 03:18:22;;;;;;;9.50;4.50;;;0.70;99.90;;;;;;5071909;28;20515;-76
2022/02/12 03:20:48;;;;;;;11.20;5.03;;;0.60;99.90;;;;;;5071942;28;20417;-76
2022/02/12 03:23:14;;;;;;;12.10;4.57;;;0.60;99.90;;;;;;5071700;28;20253;-77
2022/02/12 03:25:40;;;;;;;8.80;4.27;;;0.60;99.90;;;;;;5071371;28;20186;-77
2022/02/12 03:28:07;;;;;;;8.67;4.50;;;0.60;99.90;;;;;;5071674;28;20422;-76
2022/02/12 03:30:38;;;;;;;10.40;4.93;;;0.60;99.90;;;;;;5071680;28;20182;-76
2022/02/12 03:33:05;;;;;;;14.53;4.53;;;0.50;99.90;;;;;;5071523;28;21048;-77
2022/02/12 03:35:31;;;;;;;10.03;4.50;;;0.50;99.90;;;;;;5071414;28;20900;-76
2022/02/12 03:38:07;;;;;;;18.23;5.47;;;0.50;99.90;;;;;;5071579;28;20420;-76
2022/02/12 03:40:34;;;;;;;10.37;5.73;;;0.50;99.90;;;;;;5071462;28;20427;-77
2022/02/12 03:43:00;;;;;;;13.27;5.60;;;0.50;99.90;;;;;;5071426;28;20476;-76
2022/02/12 03:45:26;;;;;;;12.03;5.20;;;0.50;99.90;;;;;;5071335;28;20533;-76
2022/02/12 03:47:51;;;;;;;12.43;4.57;;;0.50;99.90;;;;;;5071100;28;20182;-76
2022/02/12 03:50:17;;;;;;;10.23;5.37;;;0.50;99.90;;;;;;5071333;28;20725;-76
2022/02/12 03:52:43;;;;;;;10.80;4.57;;;0.50;99.90;;;;;;5071132;28;20268;-76
2022/02/12 03:55:10;;;;;;;11.17;5.33;;;0.50;99.90;;;;;;5071255;28;20321;-77
2022/02/12 03:57:40;;;;;;;18.37;6.60;;;0.60;99.90;;;;;;5071047;28;20421;-77
2022/02/12 04:00:17;;;;;;;8.27;4.53;;;0.60;99.90;;;;;;5071219;28;20508;-77
2022/02/12 04:02:44;;;;;;;7.47;4.17;;;0.50;99.90;;;;;;5072813;28;20539;-77
2022/02/12 04:05:11;;;;;;;8.63;5.03;;;0.50;99.90;;;;;;5071770;28;20528;-77
2022/02/12 04:07:39;;;;;;;7.83;5.30;;;0.50;99.90;;;;;;5071244;28;20459;-77
2022/02/12 04:10:08;;;;;;;7.03;4.50;;;0.50;99.90;;;;;;5071011;28;20427;-77
2022/02/12 04:12:34;;;;;;;9.40;5.30;;;0.50;99.90;;;;;;5070725;28;20462;-77
2022/02/12 04:14:59;;;;;;;12.33;5.13;;;0.50;99.90;;;;;;5070943;28;20512;-77
2022/02/12 04:17:25;;;;;;;10.47;4.60;;;0.50;99.90;;;;;;5070752;28;20421;-77
2022/02/12 04:19:51;;;;;;;6.07;4.60;;;0.50;99.90;;;;;;5070954;28;20428;-77
2022/02/12 04:22:18;;;;;;;12.50;4.70;;;0.40;99.90;;;;;;5070688;28;20186;-77
2022/02/12 04:24:43;;;;;;;8.87;5.10;;;0.40;99.90;;;;;;5070893;28;20958;-77
2022/02/12 04:27:09;;;;;;;7.70;5.00;;;0.40;99.90;;;;;;5070783;28;20520;-77
2022/02/12 04:29:38;;;;;;;11.70;5.97;;;0.40;99.90;;;;;;5070839;28;20185;-77
2022/02/12 04:32:04;;;;;;;12.33;4.90;;;0.40;99.90;;;;;;5070875;28;20189;-77
2022/02/12 04:34:30;;;;;;;14.93;5.70;;;0.40;99.90;;;;;;5070531;28;20473;-77
2022/02/12 04:36:56;;;;;;;8.63;4.37;;;0.30;99.90;;;;;;5070653;28;20420;-77
2022/02/12 04:39:23;;;;;;;8.50;5.47;;;0.30;99.90;;;;;;5070558;28;20186;-77
2022/02/12 04:41:48;;;;;;;10.37;6.70;;;0.30;99.90;;;;;;5070636;28;20408;-77
2022/02/12 04:44:14;;;;;;;8.57;4.80;;;0.20;99.90;;;;;;5070460;28;20445;-77
2022/02/12 04:46:40;;;;;;;8.67;5.27;;;0.20;99.90;;;;;;5070533;28;20210;-77
2022/02/12 04:49:06;;;;;;;8.87;4.57;;;0.20;99.90;;;;;;5070516;28;20594;-77
2022/02/12 04:51:35;;;;;;;9.70;4.47;;;0.20;99.90;;;;;;5070452;28;20195;-77
2022/02/12 04:54:01;;;;;;;10.33;4.37;;;0.20;99.90;;;;;;5070238;28;21028;-77
2022/02/12 04:56:27;;;;;;;8.47;5.47;;;0.20;99.90;;;;;;5069829;28;20421;-77
2022/02/12 04:58:52;;;;;;;12.70;5.00;;;0.10;99.90;;;;;;5070524;28;20485;-77
2022/02/12 05:01:23;;;;;;;6.80;4.60;;;0.10;99.90;;;;;;5070380;28;20186;-77
2022/02/12 05:03:53;;;;;;;6.13;4.30;;;0.10;99.90;;;;;;5070387;28;20228;-77
2022/02/12 05:06:20;;;;;;;6.90;4.30;;;0.00;99.90;;;;;;5070276;28;20435;-77
2022/02/12 05:08:46;;;;;;;9.87;5.37;;;0.00;99.90;;;;;;5070325;28;20425;-77
2022/02/12 05:11:13;;;;;;;16.60;4.90;;;0.00;99.90;;;;;;5070222;28;20417;-77
2022/02/12 05:13:39;;;;;;;7.37;5.10;;;0.00;99.90;;;;;;5070209;28;20495;-77
2022/02/12 05:16:06;;;;;;;14.13;5.50;;;0.00;99.90;;;;;;5070077;28;20416;-76
2022/02/12 05:18:31;;;;;;;8.33;4.80;;;0.00;99.90;;;;;;5059216;28;20550;-77
2022/02/12 05:20:57;;;;;;;9.53;4.30;;;0.10;99.90;;;;;;5060192;28;20434;-77
2022/02/12 05:23:24;;;;;;;12.77;4.50;;;0.10;99.90;;;;;;5069681;28;20206;-77
2022/02/12 05:25:50;;;;;;;7.73;3.90;;;0.10;99.90;;;;;;5069942;28;20429;-77
2022/02/12 05:28:16;;;;;;;11.30;4.87;;;0.10;99.90;;;;;;5070133;28;20993;-77
2022/02/12 05:30:43;;;;;;;11.13;5.03;;;0.10;99.90;;;;;;5070105;28;20193;-77
2022/02/12 05:33:09;;;;;;;10.03;4.77;;;0.10;99.90;;;;;;5070366;28;20900;-77
2022/02/12 05:35:35;;;;;;;13.17;5.17;;;0.00;99.90;;;;;;5070304;28;20417;-77
2022/02/12 05:38:02;;;;;;;6.87;4.97;;;0.00;99.90;;;;;;5069784;28;20426;-77
2022/02/12 05:40:27;;;;;;;9.33;4.73;;;0.00;99.90;;;;;;5070119;28;20918;-77
2022/02/12 05:42:54;;;;;;;6.77;4.03;;;0.00;99.90;;;;;;5069862;28;20483;-77
2022/02/12 05:45:20;;;;;;;6.93;3.67;;;0.00;99.90;;;;;;5070048;28;20277;-77
2022/02/12 05:47:47;;;;;;;9.07;5.30;;;0.00;99.90;;;;;;5069886;28;20425;-77
2022/02/12 05:50:13;;;;;;;8.73;4.20;;;0.00;99.90;;;;;;5070134;28;20470;-77
2022/02/12 05:52:39;;;;;;;14.77;5.20;;;0.00;99.90;;;;;;5069771;28;20448;-77
2022/02/12 05:55:05;;;;;;;9.93;5.10;;;0.00;99.90;;;;;;5070057;28;20457;-77
2022/02/12 05:57:31;;;;;;;11.57;4.70;;;0.00;99.90;;;;;;5069736;28;20452;-77
2022/02/12 06:00:00;;;;;;;7.10;4.27;;;0.00;99.90;;;;;;5069909;28;20448;-76
2022/02/12 06:02:26;;;;;;;14.70;5.87;;;-0.10;99.90;;;;;;5069696;28;20415;-77
2022/02/12 06:04:51;;;;;;;10.00;4.93;;;0.00;99.90;;;;;;5069832;28;20768;-77
2022/02/12 06:07:18;;;;;;;7.93;4.50;;;0.00;99.90;;;;;;5069476;28;20596;-77
2022/02/12 06:09:44;;;;;;;7.07;4.40;;;-0.10;99.90;;;;;;5072559;28;20178;-77
2022/02/12 06:12:10;;;;;;;10.43;5.00;;;-0.10;99.90;;;;;;5073272;28;20472;-77
2022/02/12 06:14:35;;;;;;;9.00;4.20;;;-0.20;99.90;;;;;;5073004;28;20233;-77
2022/02/12 06:17:01;;;;;;;10.80;4.63;;;-0.10;99.90;;;;;;5073142;28;20742;-77
2022/02/12 06:19:27;;;;;;;9.17;4.70;;;-0.10;99.90;;;;;;5073200;28;20553;-77
2022/02/12 06:21:53;;;;;;;8.70;4.50;;;-0.10;99.90;;;;;;5072979;28;20761;-77
2022/02/12 06:24:19;;;;;;;7.60;4.20;;;-0.20;99.90;;;;;;5072885;28;20914;-77
2022/02/12 06:26:51;;;;;;;6.30;4.00;;;-0.20;99.90;;;;;;5073144;28;20422;-77
2022/02/12 06:29:18;;;;;;;8.60;4.43;;;-0.20;99.90;;;;;;5073001;28;20910;-77
2022/02/12 06:31:44;;;;;;;7.20;4.60;;;-0.30;99.90;;;;;;5073001;28;20949;-77
2022/02/12 06:34:10;;;;;;;8.93;4.33;;;-0.20;99.90;;;;;;5072885;28;20473;-77
2022/02/12 06:36:35;;;;;;;10.77;4.30;;;-0.20;99.90;;;;;;5072699;28;20419;-77
2022/02/12 06:39:02;;;;;;;8.37;6.20;;;-0.20;99.90;;;;;;5072808;28;20179;-77
2022/02/12 06:41:28;;;;;;;10.37;4.77;;;-0.20;99.90;;;;;;5073045;28;20175;-77
2022/02/12 06:43:53;;;;;;;7.23;4.87;;;-0.20;99.90;;;;;;5072820;28;20452;-77
2022/02/12 06:46:19;;;;;;;8.50;4.90;;;-0.20;99.90;;;;;;5072717;28;20966;-77
2022/02/12 06:48:45;;;;;;;12.00;4.70;;;-0.20;99.90;;;;;;5072809;28;20175;-77
2022/02/12 06:53:39;;;;;;;12.57;5.73;;;-0.10;99.90;;;;;;5051638;28;20508;-88
2022/02/12 06:56:04;;;;;;;12.70;4.63;;;-0.20;99.90;;;;;;5070493;28;20418;-88
2022/02/12 06:58:30;;;;;;;9.63;5.47;;;-0.20;99.90;;;;;;5053521;28;20177;-89
2022/02/12 07:00:55;;;;;;;9.27;4.07;;;-0.20;99.90;;;;;;5053294;28;20175;-89
2022/02/12 07:03:21;;;;;;;13.83;5.77;;;-0.20;99.90;;;;;;5054465;28;20246;-88
2022/02/12 07:05:46;;;;;;;12.30;5.67;;;-0.10;99.90;;;;;;5070085;28;20209;-88
2022/02/12 07:08:12;;;;;;;18.07;5.60;;;-0.10;99.90;;;;;;5069934;28;20187;-89
2022/02/12 07:10:38;;;;;;;8.87;4.17;;;-0.10;99.90;;;;;;5070272;28;20224;-89
2022/02/12 07:13:04;;;;;;;9.00;4.70;;;0.00;99.90;;;;;;5069522;28;20221;-88
2022/02/12 07:15:30;;;;;;;9.57;4.93;;;0.00;99.90;;;;;;5053107;28;20175;-88
2022/02/12 07:17:56;;;;;;;8.90;4.30;;;0.00;99.90;;;;;;5069562;28;20421;-89
2022/02/12 07:20:22;;;;;;;10.07;5.17;;;0.10;99.90;;;;;;5069283;28;20547;-89
2022/02/12 07:22:48;;;;;;;9.10;5.67;;;0.10;99.90;;;;;;5069602;28;20194;-88
2022/02/12 07:25:15;;;;;;;9.10;5.10;;;0.20;99.90;;;;;;5069901;28;20189;-89
2022/02/12 07:27:41;;;;;;;9.67;5.40;;;0.20;99.90;;;;;;5069666;28;20497;-89
2022/02/12 07:30:13;;;;;;;7.07;3.97;;;0.20;99.90;;;;;;5069646;28;20413;-89
2022/02/12 07:32:40;;;;;;;14.43;5.83;;;0.30;99.90;;;;;;5069321;28;20442;-89
2022/02/12 07:35:08;;;;;;;14.33;5.40;;;0.40;99.90;;;;;;5069345;28;20801;-89
2022/02/12 07:37:34;;;;;;;12.87;5.40;;;0.40;99.90;;;;;;5052897;28;20908;-89
2022/02/12 07:40:01;;;;;;;7.57;4.93;;;0.50;99.90;;;;;;5069318;28;20420;-90
2022/02/12 07:42:27;;;;;;;8.63;5.27;;;0.60;99.90;;;;;;5069063;28;20956;-89
2022/02/12 07:44:53;;;;;;;13.73;5.70;;;0.60;99.90;;;;;;5069376;28;20800;-89
2022/02/12 07:47:18;;;;;;;9.23;4.80;;;0.70;99.90;;;;;;5069450;28;20418;-89
2022/02/12 07:49:44;;;;;;;9.73;5.10;;;0.70;99.90;;;;;;5069052;28;20422;-90
2022/02/12 07:52:10;;;;;;;9.90;5.40;;;0.70;99.90;;;;;;5053579;28;20218;-89
2022/02/12 07:54:35;;;;;;;9.60;5.23;;;0.80;99.90;;;;;;5069032;28;20458;-90
2022/02/12 07:57:01;;;;;;;11.90;5.67;;;0.80;99.90;;;;;;5069001;28;20178;-89
2022/02/12 07:59:27;;;;;;;10.90;5.13;;;0.90;99.90;;;;;;5068899;28;20600;-89
2022/02/12 08:01:53;;;;;;;11.57;5.47;;;1.00;99.90;;;;;;5068762;28;20517;-88
2022/02/12 08:04:18;;;;;;;9.77;4.23;;;1.00;99.90;;;;;;5068840;28;20629;-88
2022/02/12 08:09:31;;;;;;;12.07;4.87;;;1.10;99.90;;;;;;5053641;28;20203;-88
2022/02/12 08:12:13;;;;;;;8.37;5.17;;;1.10;99.90;;;;;;5068535;28;20474;-89
2022/02/12 08:14:42;;;;;;;9.50;5.47;;;1.20;99.90;;;;;;5068729;28;20457;-89
2022/02/12 08:17:09;;;;;;;9.30;5.60;;;1.20;99.90;;;;;;5068501;28;20427;-89
2022/02/12 08:19:34;;;;;;;15.67;5.73;;;1.20;99.90;;;;;;5068540;28;20868;-89
2022/02/12 08:22:00;;;;;;;9.70;6.33;;;1.30;99.90;;;;;;5068569;28;20478;-89
2022/02/12 08:24:26;;;;;;;12.63;6.63;;;1.30;99.90;;;;;;5068601;28;20211;-89
2022/02/12 08:26:51;;;;;;;9.67;5.30;;;1.40;99.90;;;;;;5068432;28;20176;-89
2022/02/12 08:29:17;;;;;;;12.20;6.20;;;1.50;99.90;;;;;;5068468;28;20996;-88
2022/02/12 08:31:43;;;;;;;8.03;5.30;;;1.50;99.90;;;;;;5067804;28;20234;-89
2022/02/12 08:34:08;;;;;;;15.93;5.80;;;1.60;99.90;;;;;;5068657;28;20211;-89
2022/02/12 08:36:34;;;;;;;8.60;4.87;;;1.60;99.90;;;;;;5068186;28;20249;-89
2022/02/12 08:39:00;;;;;;;18.13;5.10;;;1.80;99.90;;;;;;5068491;28;20183;-89
2022/02/12 08:41:26;;;;;;;9.40;5.63;;;1.90;99.90;;;;;;5068425;28;20201;-89
2022/02/12 08:43:51;;;;;;;9.80;4.90;;;2.00;99.90;;;;;;5068151;28;20479;-88
2022/02/12 08:46:17;;;;;;;14.67;5.87;;;2.10;99.90;;;;;;5051685;28;20191;-89
2022/02/12 08:48:43;;;;;;;8.60;5.20;;;2.20;99.90;;;;;;5068055;28;20632;-89
2022/02/12 08:51:10;;;;;;;10.80;4.77;;;2.30;99.90;;;;;;5068088;28;20274;-88
2022/02/12 08:53:36;;;;;;;13.37;5.27;;;2.40;99.90;;;;;;5068042;28;20208;-88
2022/02/12 08:56:01;;;;;;;8.13;5.47;;;2.40;99.90;;;;;;5068045;28;20838;-89
2022/02/12 08:58:27;;;;;;;10.00;5.07;;;2.50;99.90;;;;;;5068022;28;20210;-89
2022/02/12 09:00:53;;;;;;;11.53;5.33;;;2.60;99.90;;;;;;5068054;28;20235;-89
2022/02/12 09:03:18;;;;;;;10.03;6.73;;;2.70;99.90;;;;;;5067814;28;20291;-89
2022/02/12 09:05:44;;;;;;;9.57;6.10;;;2.80;99.90;;;;;;5068030;28;20275;-89
2022/02/12 09:08:11;;;;;;;10.90;5.17;;;2.90;99.90;;;;;;5051085;28;20639;-89
2022/02/12 09:10:37;;;;;;;9.87;5.30;;;3.00;99.90;;;;;;5052632;28;20185;-90
2022/02/12 09:13:03;;;;;;;11.43;5.20;;;3.10;99.90;;;;;;5067640;28;20513;-88
2022/02/12 09:15:28;;;;;;;9.93;5.60;;;3.30;99.90;;;;;;5052313;28;20258;-89
2022/02/12 09:17:54;;;;;;;16.07;5.73;;;3.30;99.90;;;;;;5067481;28;20317;-89
2022/02/12 09:20:20;;;;;;;10.37;5.80;;;3.40;99.90;;;;;;5067743;28;20542;-90
2022/02/12 09:22:46;;;;;;;11.73;4.80;;;3.40;99.90;;;;;;5067488;28;20250;-89
2022/02/12 09:25:12;;;;;;;7.40;4.67;;;3.50;99.90;;;;;;5067540;28;20419;-90
2022/02/12 09:27:38;;;;;;;9.53;4.07;;;3.60;99.90;;;;;;5068760;28;20932;-89
2022/02/12 09:30:05;;;;;;;10.37;5.17;;;3.70;99.90;;;;;;5052104;28;20417;-88
2022/02/12 09:32:31;;;;;;;7.57;4.83;;;3.90;99.90;;;;;;5067529;28;20533;-86
2022/02/12 09:34:58;;;;;;;9.20;4.80;;;4.00;99.90;;;;;;5067218;28;20546;-87
2022/02/12 09:37:24;;;;;;;15.70;7.07;;;4.10;99.90;;;;;;5059954;28;20445;-87
2022/02/12 09:39:49;;;;;;;11.70;5.50;;;4.20;99.90;;;;;;5045361;28;20420;-87
2022/02/12 09:42:15;;;;;;;12.63;5.37;;;4.30;99.90;;;;;;5050964;28;20979;-86
2022/02/12 09:44:41;;;;;;;18.67;5.37;;;4.30;99.90;;;;;;5054592;28;20226;-86
2022/02/12 09:47:35;;;;;;;10.47;5.10;;;4.50;99.90;;;;;;5053863;28;20176;-87
2022/02/12 09:50:00;;;;;;;12.63;5.40;;;4.50;99.90;;;;;;5051734;28;20811;-87
2022/02/12 09:52:29;;;;;;;9.83;4.27;;;4.60;99.90;;;;;;5053698;28;20457;-87
2022/02/12 09:54:56;;;;;;;8.50;5.03;;;4.60;99.90;;;;;;5070425;28;20200;-88
2022/02/12 09:57:21;;;;;;;9.53;5.77;;;4.80;99.90;;;;;;5053814;28;20410;-86
2022/02/12 09:59:47;;;;;;;8.33;4.40;;;4.90;99.90;;;;;;5053895;28;20531;-87
2022/02/12 10:02:18;;;;;;;9.40;4.70;;;5.00;99.90;;;;;;5054982;28;20218;-88
2022/02/12 10:04:44;;;;;;;15.97;4.50;;;5.10;99.90;;;;;;5053847;28;20266;-86
2022/02/12 10:07:23;;;;;;;14.00;5.03;;;5.20;99.90;;;;;;5053735;28;20512;-87
2022/02/12 10:10:09;;;;;;;6.30;3.93;;;5.30;99.90;;;;;;5055279;28;20180;-87
2022/02/12 10:12:35;;;;;;;15.00;4.67;;;5.30;99.90;;;;;;5052867;28;20563;-87
2022/02/12 10:15:00;;;;;;;7.37;4.00;;;5.30;99.90;;;;;;5053607;28;21115;-87
2022/02/12 10:17:26;;;;;;;12.07;5.13;;;5.40;99.90;;;;;;5043255;28;20585;-85
2022/02/12 10:19:51;;;;;;;8.77;4.80;;;5.50;99.90;;;;;;5054802;28;20810;-87
2022/02/12 10:22:19;;;;;;;14.20;5.87;;;5.60;99.90;;;;;;5054868;28;20567;-87
2022/02/12 10:24:52;;;;;;;8.67;4.87;;;5.70;99.90;;;;;;5070157;28;20214;-87
2022/02/12 10:27:27;;;;;;;12.20;4.80;;;5.90;99.90;;;;;;5053354;28;20426;-87
2022/02/12 10:29:55;;;;;;;16.40;4.87;;;6.00;99.90;;;;;;5070138;28;20427;-88
2022/02/12 10:32:22;;;;;;;9.87;5.10;;;6.20;99.90;;;;;;5070067;28;20447;-86
2022/02/12 10:34:49;;;;;;;9.13;4.10;;;6.30;99.90;;;;;;5070244;28;20555;-87
2022/02/12 10:37:16;;;;;;;21.37;5.93;;;6.30;99.90;;;;;;5069710;28;20470;-87
2022/02/12 10:40:00;;;;;;;7.43;4.20;;;6.30;99.90;;;;;;5070364;28;20417;-87
2022/02/12 10:42:28;;;;;;;8.23;4.10;;;6.30;99.90;;;;;;5069981;28;20441;-87
2022/02/12 10:44:54;;;;;;;9.20;4.63;;;6.40;99.90;;;;;;5069892;28;20504;-87
2022/02/12 10:47:20;;;;;;;10.77;4.73;;;6.50;99.90;;;;;;5069715;28;20421;-87
2022/02/12 10:49:47;;;;;;;5.13;3.27;;;6.50;99.90;;;;;;5069954;28;20503;-87
2022/02/12 10:52:13;;;;;;;10.23;3.73;;;6.60;99.90;;;;;;5069407;28;20469;-87
2022/02/12 10:54:40;;;;;;;7.53;3.70;;;6.70;99.90;;;;;;5068816;28;20471;-86
2022/02/12 10:57:07;;;;;;;8.80;3.70;;;6.80;99.90;;;;;;5053933;28;20982;-87
2022/02/12 10:59:36;;;;;;;12.47;3.63;;;6.90;99.90;;;;;;5069502;28;20420;-87
2022/02/12 11:02:07;;;;;;;7.00;3.67;;;7.00;99.90;;;;;;5069467;28;20446;-86
2022/02/12 11:04:35;;;;;;;9.33;4.10;;;7.10;99.90;;;;;;5070474;28;20425;-86
2022/02/12 11:07:02;;;;;;;14.23;3.97;;;7.20;99.90;;;;;;5051679;28;20445;-86
2022/02/12 11:09:33;;;;;;;9.27;3.30;;;7.40;99.90;;;;;;5043992;28;20425;-87
2022/02/12 11:12:04;;;;;;;16.43;4.07;;;7.50;99.90;;;;;;5061647;28;20454;-86
2022/02/12 11:14:33;;;;;;;7.27;4.40;;;7.80;99.90;;;;;;5041250;28;20880;-86
2022/02/12 11:17:01;;;;;;;7.73;3.20;;;8.50;99.90;;;;;;5046286;28;20434;-87
2022/02/12 11:19:28;;;;;;;7.10;3.20;;;9.90;99.90;;;;;;5048708;28;20411;-88
2022/02/12 11:21:55;;;;;;;5.47;3.70;;;11.10;99.90;;;;;;5052040;28;20986;-86
2022/02/12 11:24:46;;;;;;;8.33;3.63;;;12.20;99.90;;;;;;5052224;28;20937;-87
2022/02/12 11:27:19;;;;;;;5.90;2.90;;;14.20;99.90;;;;;;5051977;28;20432;-87
2022/02/12 11:29:46;;;;;;;10.60;3.67;;;15.80;89.30;;;;;;5053055;28;20452;-85
2022/02/12 11:32:26;;;;;;;9.33;4.00;;;16.50;75.20;;;;;;5053302;28;20524;-85
2022/02/12 11:35:10;;;;;;;7.77;3.30;;;17.10;69.10;;;;;;5052832;28;20466;-84
2022/02/12 11:37:47;;;;;;;9.03;3.17;;;17.90;63.00;;;;;;5052485;28;20576;-85
2022/02/12 11:40:14;;;;;;;9.00;4.33;;;19.10;58.50;;;;;;5053765;28;20418;-86
2022/02/12 11:42:50;;;;;;;7.90;3.80;;;20.00;54.50;;;;;;5053360;28;20548;-86
2022/02/12 11:45:29;;;;;;;5.70;3.60;;;21.30;49.70;;;;;;5052350;28;20414;-85
2022/02/12 11:48:12;;;;;;;7.27;3.40;;;21.20;50.10;;;;;;5052023;28;20838;-85
2022/02/12 11:51:04;;;;;;;8.00;2.77;;;21.90;48.60;;;;;;5053546;28;20406;-86
2022/02/12 11:53:46;;;;;;;8.10;3.30;;;22.50;43.70;;;;;;5051949;28;20518;-85
2022/02/12 11:56:17;;;;;;;5.47;2.40;;;21.10;42.00;;;;;;5051792;28;20426;-85
2022/02/12 11:58:43;;;;;;;5.97;3.20;;;20.50;42.70;;;;;;5051833;28;20421;-86
2022/02/12 12:01:35;;;;;;;7.93;2.93;;;20.20;43.00;;;;;;5051712;28;20414;-85
2022/02/12 12:04:15;;;;;;;6.27;2.37;;;20.40;42.90;;;;;;5053075;28;20631;-86
2022/02/12 12:07:02;;;;;;;6.80;2.93;;;20.50;42.30;;;;;;5052410;28;20510;-85
2022/02/12 12:09:32;;;;;;;7.97;2.60;;;19.50;42.50;;;;;;5053302;28;20422;-85
2022/02/12 12:12:10;;;;;;;8.70;2.97;;;18.90;42.80;;;;;;5051786;28;20438;-85
2022/02/12 12:14:39;;;;;;;8.10;2.87;;;18.90;43.20;;;;;;5053082;28;20556;-86
2022/02/12 12:17:06;;;;;;;6.90;2.60;;;19.40;43.40;;;;;;5054891;28;20452;-84
2022/02/12 12:19:34;;;;;;;6.87;2.50;;;19.10;42.30;;;;;;5052918;28;20450;-84
2022/02/12 12:22:01;;;;;;;9.20;3.20;;;19.40;42.90;;;;;;5051219;28;20465;-83
2022/02/12 12:24:27;;;;;;;9.17;2.40;;;20.20;42.30;;;;;;5052366;28;20418;-85
2022/02/12 12:26:53;;;;;;;6.37;2.63;;;20.50;41.40;;;;;;5051939;28;20421;-84
2022/02/12 12:32:17;;;;;;;7.17;3.30;;;21.60;40.70;;;;;;5053559;28;20744;-84
2022/02/12 12:34:51;;;;;;;8.77;2.57;;;21.50;40.50;;;;;;5052938;28;20465;-84
2022/02/12 12:37:19;;;;;;;5.40;2.70;;;20.70;40.70;;;;;;5050870;28;20469;-84
2022/02/12 12:39:45;;;;;;;9.27;2.77;;;19.90;39.40;;;;;;5050898;28;20414;-84
2022/02/12 12:42:17;;;;;;;7.53;3.33;;;19.60;39.50;;;;;;5050971;28;20975;-83
2022/02/12 12:44:44;;;;;;;5.37;2.13;;;17.90;40.90;;;;;;5051109;28;20426;-84
2022/02/12 12:47:10;;;;;;;7.60;2.80;;;16.80;42.70;;;;;;5052269;28;20436;-84
2022/02/12 12:49:40;;;;;;;8.33;2.67;;;15.70;43.70;;;;;;5050512;28;20425;-83
2022/02/12 12:52:12;;;;;;;4.43;2.57;;;14.60;44.20;;;;;;5041718;28;20465;-83
2022/02/12 12:54:42;;;;;;;8.00;3.10;;;13.80;47.30;;;;;;5048380;28;20478;-81
2022/02/12 12:57:10;;;;;;;5.37;3.10;;;13.30;48.40;;;;;;5047799;28;20890;-81
2022/02/12 12:59:51;;;;;;;7.90;3.43;;;13.80;49.00;;;;;;5031968;28;20505;-82
2022/02/12 13:02:17;;;;;;;6.20;3.03;;;13.40;50.20;;;;;;5031322;28;20450;-82
2022/02/12 13:04:51;;;;;;;5.90;2.40;;;14.30;50.90;;;;;;5035426;28;20430;-81
2022/02/12 13:07:32;;;;;;;10.00;3.30;;;16.50;50.20;;;;;;5049531;28;20920;-82